Time;durP1;ratioP1;P1;durP2;ratioP2;P2;SDS_P1;SDS_P2;PMS_P1;PMS_P2;Temp;Humidity;BMP_temperature;BMP_pressure;BME280_temperature;BME280_humidity;BME280_pressure;Samples;Min_cycle;Max_cycle;Signal;HPM_P1;HPM_P2
2023/12/13 00:01:56;;;;;;;7.50;4.57;;;;;;;7.31;100.00;99050.34;5006892;28;20221;-83
2023/12/13 00:04:23;;;;;;;6.40;4.73;;;;;;;7.31;100.00;99050.34;5009602;28;20570;-84
2023/12/13 00:06:49;;;;;;;6.33;4.60;;;;;;;7.30;100.00;99043.38;5011372;28;20231;-85
2023/12/13 00:09:16;;;;;;;6.83;4.60;;;;;;;7.30;100.00;99038.06;5008010;28;20303;-84
2023/12/13 00:11:42;;;;;;;7.53;4.50;;;;;;;7.26;100.00;99032.16;5011670;28;20295;-84
2023/12/13 00:14:10;;;;;;;7.77;5.13;;;;;;;7.27;100.00;99038.31;5008868;28;20206;-84
2023/12/13 00:16:38;;;;;;;7.13;4.30;;;;;;;7.26;100.00;99031.31;5011669;28;20218;-85
2023/12/13 00:19:06;;;;;;;6.90;4.30;;;;;;;7.27;100.00;99030.34;5006697;28;20211;-85
2023/12/13 00:21:32;;;;;;;5.97;4.10;;;;;;;7.26;100.00;99028.66;5007871;28;20208;-83
2023/12/13 00:23:59;;;;;;;8.00;4.17;;;;;;;7.24;100.00;99022.63;5007354;28;20234;-85
2023/12/13 00:26:25;;;;;;;6.90;4.47;;;;;;;7.22;100.00;99013.97;5006500;28;20249;-85
2023/12/13 00:28:52;;;;;;;6.60;4.67;;;;;;;7.20;100.00;99007.94;5005872;28;20204;-85
2023/12/13 00:31:19;;;;;;;8.27;4.20;;;;;;;7.20;100.00;99010.59;5008045;28;20614;-83
2023/12/13 00:33:46;;;;;;;6.33;3.67;;;;;;;7.20;100.00;99000.00;5001872;28;20546;-84
2023/12/13 00:36:12;;;;;;;7.80;4.53;;;;;;;7.18;100.00;99007.22;5010601;28;20250;-85
2023/12/13 00:38:39;;;;;;;7.43;4.60;;;;;;;7.18;100.00;99012.50;5005428;28;20577;-85
2023/12/13 00:41:05;;;;;;;7.37;4.23;;;;;;;7.17;100.00;99006.38;5006551;28;20577;-85
2023/12/13 00:43:32;;;;;;;6.37;4.47;;;;;;;7.18;100.00;99002.75;5005893;28;20222;-83
2023/12/13 00:45:59;;;;;;;8.83;5.30;;;;;;;7.19;100.00;99011.53;5001822;28;20258;-84
2023/12/13 00:48:26;;;;;;;6.13;3.90;;;;;;;7.18;100.00;99007.22;5011109;28;20710;-85
2023/12/13 00:50:54;;;;;;;6.80;4.30;;;;;;;7.16;100.00;99003.84;5003001;28;20573;-84
2023/12/13 00:53:21;;;;;;;8.33;4.00;;;;;;;7.14;100.00;98996.03;5008037;28;20226;-86
2023/12/13 00:55:53;;;;;;;6.67;4.10;;;;;;;7.14;100.00;98995.19;5005288;28;20562;-85
2023/12/13 00:58:20;;;;;;;7.27;4.37;;;;;;;7.14;100.00;99000.47;5003955;28;20199;-84
2023/12/13 01:00:46;;;;;;;8.47;4.60;;;;;;;7.10;100.00;99009.59;5011652;28;20217;-84
2023/12/13 01:03:13;;;;;;;7.40;4.10;;;;;;;7.09;100.00;99013.22;5006103;28;20234;-84
2023/12/13 01:05:41;;;;;;;5.63;4.37;;;;;;;7.07;100.00;99012.47;5009126;28;20775;-84
2023/12/13 01:08:07;;;;;;;5.30;4.03;;;;;;;7.07;100.00;99015.13;5004325;28;20313;-85
2023/12/13 01:10:34;;;;;;;6.03;4.57;;;;;;;7.06;100.00;99014.28;5007088;28;20580;-85
2023/12/13 01:13:02;;;;;;;4.97;3.97;;;;;;;7.05;100.00;99007.28;5015938;28;20812;-85
2023/12/13 01:15:28;;;;;;;6.87;4.93;;;;;;;7.05;100.00;99004.66;5009308;28;20734;-85
2023/12/13 01:17:55;;;;;;;10.23;5.17;;;;;;;7.05;100.00;98986.13;5005085;28;20231;-83
2023/12/13 01:20:21;;;;;;;5.93;4.70;;;;;;;7.05;100.00;98982.63;5005699;28;20211;-83
2023/12/13 01:22:51;;;;;;;6.80;4.50;;;;;;;7.02;100.00;98982.84;5010098;28;20211;-84
2023/12/13 01:25:18;;;;;;;7.67;5.20;;;;;;;7.02;100.00;98996.94;5001345;28;20211;-85
2023/12/13 01:27:44;;;;;;;6.30;4.00;;;;;;;6.99;100.00;99004.28;5010545;28;20230;-83
2023/12/13 01:30:11;;;;;;;5.40;4.57;;;;;;;6.97;100.00;99005.25;5009088;28;20207;-84
2023/12/13 01:32:38;;;;;;;6.73;4.83;;;;;;;6.96;100.00;98998.25;5008673;28;20209;-84
2023/12/13 01:35:09;;;;;;;7.90;5.13;;;;;;;6.95;100.00;98993.91;5007562;28;20208;-84
2023/12/13 01:37:35;;;;;;;9.83;5.50;;;;;;;6.97;100.00;98999.94;5008107;28;20227;-84
2023/12/13 01:40:03;;;;;;;8.37;5.53;;;;;;;6.98;100.00;99006.09;5005503;28;20210;-84
2023/12/13 01:42:30;;;;;;;8.53;5.07;;;;;;;6.97;100.00;98994.66;5006001;28;20203;-85
2023/12/13 01:44:56;;;;;;;5.80;4.77;;;;;;;6.99;100.00;98999.00;5007136;28;20230;-84
2023/12/13 01:47:23;;;;;;;6.30;4.80;;;;;;;6.98;100.00;98990.19;5008840;28;20237;-85
2023/12/13 01:49:49;;;;;;;8.93;5.33;;;;;;;6.99;100.00;98997.16;5007937;28;20655;-85
2023/12/13 01:52:16;;;;;;;7.73;5.60;;;;;;;7.01;100.00;98994.41;5004426;28;20214;-84
2023/12/13 01:54:44;;;;;;;7.87;5.80;;;;;;;7.03;100.00;98997.78;5008657;28;20218;-85
2023/12/13 01:57:13;;;;;;;6.87;5.60;;;;;;;7.05;100.00;98995.84;5008106;28;20233;-84
2023/12/13 01:59:39;;;;;;;7.67;5.43;;;;;;;7.05;100.00;98996.72;5008924;28;20231;-83
2023/12/13 02:02:06;;;;;;;6.87;5.57;;;;;;;7.07;100.00;98988.66;5002302;28;20203;-84
2023/12/13 02:04:35;;;;;;;10.17;6.07;;;;;;;7.08;100.00;98990.34;5004777;28;20230;-84
2023/12/13 02:07:01;;;;;;;8.60;5.80;;;;;;;7.10;100.00;98991.91;5009000;28;20223;-84
2023/12/13 02:09:28;;;;;;;9.23;6.03;;;;;;;7.12;100.00;98989.16;5005050;28;20300;-84
2023/12/13 02:11:54;;;;;;;8.43;5.67;;;;;;;7.13;100.00;98982.91;5005711;28;20207;-84
2023/12/13 02:14:25;;;;;;;9.03;5.87;;;;;;;7.16;100.00;98977.38;5006792;28;20203;-84
2023/12/13 02:16:53;;;;;;;9.43;5.73;;;;;;;7.17;100.00;98974.59;5003793;28;20227;-85
2023/12/13 02:19:19;;;;;;;6.33;5.33;;;;;;;7.23;100.00;98973.28;5000472;28;20297;-84
2023/12/13 02:21:46;;;;;;;6.63;5.47;;;;;;;7.30;100.00;98972.72;5005999;28;20214;-83
2023/12/13 02:24:14;;;;;;;8.90;4.63;;;;;;;7.34;100.00;98969.84;5004015;28;20234;-83
2023/12/13 02:26:42;;;;;;;8.17;4.87;;;;;;;7.37;100.00;98972.22;4998616;28;20227;-83
2023/12/13 02:29:10;;;;;;;5.00;4.00;;;;;;;7.40;100.00;98970.19;5008528;28;20242;-84
2023/12/13 02:31:37;;;;;;;7.13;4.40;;;;;;;7.44;100.00;98965.50;5006942;28;20225;-84
2023/12/13 02:34:04;;;;;;;7.20;4.23;;;;;;;7.48;100.00;98962.50;5008093;28;20199;-83
2023/12/13 02:36:30;;;;;;;7.73;4.43;;;;;;;7.47;100.00;98957.34;5003830;28;20219;-84
2023/12/13 02:38:57;;;;;;;6.67;4.50;;;;;;;7.46;100.00;98964.44;5006998;28;20207;-83
2023/12/13 02:41:25;;;;;;;8.13;4.50;;;;;;;7.53;100.00;98960.34;5007368;28;20639;-83
2023/12/13 02:43:51;;;;;;;5.57;4.33;;;;;;;7.63;100.00;98963.97;5007087;28;20227;-82
2023/12/13 02:46:17;;;;;;;6.37;3.83;;;;;;;7.68;100.00;98963.63;5014849;28;20226;-82
2023/12/13 02:48:44;;;;;;;6.10;4.17;;;;;;;7.67;100.00;98988.44;5010955;28;20238;-83
2023/12/13 02:51:10;;;;;;;6.63;4.07;;;;;;;7.68;100.00;98991.91;5010007;28;20206;-82
2023/12/13 02:53:40;;;;;;;7.73;4.83;;;;;;;7.69;100.00;98996.25;5008648;28;20248;-83
2023/12/13 02:56:08;;;;;;;7.83;4.63;;;;;;;7.69;100.00;98997.09;5002713;28;20266;-84
2023/12/13 02:58:35;;;;;;;8.00;4.57;;;;;;;7.74;100.00;99000.22;5010365;28;20207;-82
2023/12/13 03:01:02;;;;;;;7.20;5.77;;;;;;;7.74;100.00;98997.56;5012845;28;20202;-82
2023/12/13 03:03:28;;;;;;;5.83;4.20;;;;;;;7.78;100.00;99001.66;5010359;28;20206;-83
2023/12/13 03:05:55;;;;;;;5.47;3.87;;;;;;;7.83;100.00;98998.66;5012644;28;20218;-83
2023/12/13 03:08:21;;;;;;;5.00;3.30;;;;;;;7.84;100.00;98984.47;5006801;28;20210;-84
2023/12/13 03:10:48;;;;;;;5.07;3.70;;;;;;;7.86;100.00;98988.69;5013129;28;20575;-84
2023/12/13 03:13:14;;;;;;;3.77;2.87;;;;;;;7.85;100.00;98986.16;5002962;28;20207;-83
2023/12/13 03:15:42;;;;;;;6.30;3.63;;;;;;;7.83;100.00;98974.81;5009367;28;20203;-83
2023/12/13 03:18:09;;;;;;;4.83;3.43;;;;;;;7.83;100.00;98972.16;5012651;28;20237;-82
2023/12/13 03:20:35;;;;;;;4.67;3.60;;;;;;;7.81;100.00;98979.38;5012562;28;20210;-82
2023/12/13 03:23:07;;;;;;;3.67;3.03;;;;;;;7.82;100.00;98981.91;5012438;28;20213;-83
2023/12/13 03:25:33;;;;;;;5.27;3.43;;;;;;;7.85;100.00;98983.50;5011611;28;20281;-81
2023/12/13 03:28:00;;;;;;;3.90;3.43;;;;;;;7.87;100.00;98978.91;5010765;28;20703;-83
2023/12/13 03:30:26;;;;;;;6.30;3.73;;;;;;;7.85;100.00;98972.91;5003296;28;20234;-81
2023/12/13 03:32:54;;;;;;;6.23;3.80;;;;;;;7.84;100.00;98971.19;5006113;28;20366;-82
2023/12/13 03:35:21;;;;;;;5.50;3.60;;;;;;;7.83;100.00;98977.47;5010695;28;20207;-82
2023/12/13 03:37:47;;;;;;;4.50;3.90;;;;;;;7.80;100.00;98959.16;5012756;28;20679;-82
2023/12/13 03:40:14;;;;;;;4.87;3.77;;;;;;;7.84;100.00;98968.56;5007459;28;20338;-81
2023/12/13 03:42:41;;;;;;;4.50;3.07;;;;;;;7.84;100.00;98966.75;5008344;28;20204;-81
2023/12/13 03:45:08;;;;;;;4.40;3.07;;;;;;;7.83;100.00;98966.88;5003833;28;20222;-81
2023/12/13 03:47:34;;;;;;;4.33;3.27;;;;;;;7.79;100.00;98966.25;5009058;28;20230;-82
2023/12/13 03:50:02;;;;;;;4.23;3.30;;;;;;;7.77;100.00;98969.97;5006525;28;20217;-82
2023/12/13 03:52:29;;;;;;;3.53;2.97;;;;;;;7.78;100.00;98959.28;5003695;28;20665;-82
2023/12/13 03:54:55;;;;;;;4.17;2.87;;;;;;;7.77;100.00;98967.34;5011660;28;20269;-81
2023/12/13 03:57:22;;;;;;;3.00;2.60;;;;;;;7.73;100.00;98966.72;5008923;28;20333;-83
2023/12/13 03:59:48;;;;;;;4.20;2.43;;;;;;;7.72;100.00;98970.34;5010144;28;20210;-81
2023/12/13 04:02:15;;;;;;;2.93;2.10;;;;;;;7.74;100.00;98964.91;5009587;28;20203;-83
2023/12/13 04:04:41;;;;;;;2.50;1.83;;;;;;;7.74;100.00;98967.56;5009939;28;20223;-82
2023/12/13 04:07:10;;;;;;;3.37;2.30;;;;;;;7.73;100.00;98971.19;5008073;28;20235;-84
2023/12/13 04:09:37;;;;;;;3.07;2.20;;;;;;;7.71;100.00;98968.66;5010727;28;20227;-82
2023/12/13 04:12:06;;;;;;;2.80;1.73;;;;;;;7.72;100.00;98964.19;5004164;28;20207;-83
2023/12/13 04:14:32;;;;;;;3.47;1.80;;;;;;;7.70;100.00;98967.00;5003992;28;20196;-83
2023/12/13 04:16:59;;;;;;;2.07;1.80;;;;;;;7.70;100.00;98964.34;5005466;28;20231;-84
2023/12/13 04:19:25;;;;;;;3.90;1.93;;;;;;;7.68;100.00;98973.38;5009705;28;20203;-83
2023/12/13 04:21:51;;;;;;;5.03;2.17;;;;;;;7.66;100.00;98970.84;5008715;28;20214;-83
2023/12/13 04:24:19;;;;;;;4.30;1.90;;;;;;;7.64;100.00;98967.47;5009787;28;20231;-82
2023/12/13 04:26:46;;;;;;;2.53;1.90;;;;;;;7.64;100.00;98972.75;5007651;28;20238;-83
2023/12/13 04:29:12;;;;;;;2.40;1.80;;;;;;;7.62;100.00;98967.56;5008583;28;20570;-83
2023/12/13 04:31:40;;;;;;;2.00;1.60;;;;;;;7.61;100.00;98962.41;5003532;28;20233;-83
2023/12/13 04:34:06;;;;;;;1.97;1.70;;;;;;;7.60;100.00;98966.00;5014544;28;20207;-84
2023/12/13 04:36:33;;;;;;;3.03;1.83;;;;;;;7.59;100.00;98962.50;5005314;28;20262;-83
2023/12/13 04:38:59;;;;;;;3.20;1.90;;;;;;;7.61;100.00;98965.88;5006778;28;20234;-83
2023/12/13 04:41:27;;;;;;;2.27;1.73;;;;;;;7.61;100.00;98955.28;5005856;28;20218;-83
2023/12/13 04:43:53;;;;;;;2.43;2.10;;;;;;;7.62;100.00;98954.34;5008565;28;20212;-83
2023/12/13 04:46:20;;;;;;;3.60;1.97;;;;;;;7.61;100.00;98957.09;5009638;28;20238;-84
2023/12/13 04:48:46;;;;;;;4.67;3.10;;;;;;;7.59;100.00;98962.50;5005956;28;20212;-84
2023/12/13 04:51:13;;;;;;;4.40;3.37;;;;;;;7.59;100.00;98959.88;5006072;28;20214;-84
2023/12/13 04:53:39;;;;;;;3.47;2.23;;;;;;;7.59;100.00;98959.88;5006304;28;20195;-83
2023/12/13 04:56:06;;;;;;;3.07;2.30;;;;;;;7.58;100.00;98963.47;5009759;28;20199;-85
2023/12/13 04:58:34;;;;;;;3.40;3.03;;;;;;;7.57;100.00;98960.94;5010122;28;20214;-84
2023/12/13 05:01:01;;;;;;;4.50;3.57;;;;;;;7.58;100.00;98966.13;5007328;28;20230;-85
2023/12/13 05:03:28;;;;;;;2.20;1.90;;;;;;;7.58;100.00;98967.94;5003798;28;20207;-83
2023/12/13 05:05:54;;;;;;;2.47;2.00;;;;;;;7.58;100.00;98963.47;5004103;28;20231;-84
2023/12/13 05:08:20;;;;;;;2.67;2.20;;;;;;;7.60;100.00;98961.56;5005288;28;20217;-85
2023/12/13 05:10:47;;;;;;;3.73;2.00;;;;;;;7.58;100.00;98966.13;5005887;28;20214;-84
2023/12/13 05:13:14;;;;;;;2.90;2.10;;;;;;;7.58;100.00;98963.47;5009563;28;20222;-84
2023/12/13 05:15:41;;;;;;;3.43;2.17;;;;;;;7.56;100.00;98959.25;4999720;28;20203;-83
2023/12/13 05:18:09;;;;;;;2.20;1.73;;;;;;;7.56;100.00;98953.94;5011100;28;20229;-83
2023/12/13 05:20:35;;;;;;;5.07;3.17;;;;;;;7.55;100.00;98953.09;5002931;28;20206;-84
2023/12/13 05:23:02;;;;;;;4.20;3.07;;;;;;;7.56;100.00;98953.94;5007156;28;20202;-85
2023/12/13 05:25:28;;;;;;;4.93;3.10;;;;;;;7.56;100.00;98959.25;5001251;28;20235;-85
2023/12/13 05:27:54;;;;;;;4.93;3.00;;;;;;;7.55;100.00;98955.75;5009944;28;20222;-84
2023/12/13 05:30:23;;;;;;;6.43;4.00;;;;;;;7.53;100.00;98952.38;5008579;28;20212;-84
2023/12/13 05:32:51;;;;;;;5.23;3.70;;;;;;;7.53;100.00;98949.72;5006623;28;20211;-84
2023/12/13 05:35:17;;;;;;;4.03;2.90;;;;;;;7.51;100.00;98941.09;5002633;28;20219;-83
2023/12/13 05:37:44;;;;;;;5.23;3.30;;;;;;;7.50;100.00;98960.59;5003569;28;20238;-83
2023/12/13 05:40:12;;;;;;;3.83;2.93;;;;;;;7.51;100.00;98951.69;5006498;28;20203;-84
2023/12/13 05:42:39;;;;;;;3.27;2.53;;;;;;;7.49;100.00;98953.59;5003028;28;20211;-84
2023/12/13 05:45:06;;;;;;;2.90;2.27;;;;;;;7.49;100.00;98948.31;5004615;28;20736;-83
2023/12/13 05:47:33;;;;;;;2.87;2.07;;;;;;;7.49;100.00;98958.91;5006932;28;20882;-84
2023/12/13 05:50:00;;;;;;;2.30;1.93;;;;;;;7.48;100.00;98951.91;5005489;28;20229;-81
2023/12/13 05:52:27;;;;;;;2.90;2.03;;;;;;;7.49;100.00;98953.59;5003206;28;20210;-82
2023/12/13 05:54:54;;;;;;;3.53;1.90;;;;;;;7.48;100.00;98959.03;5009846;28;20253;-82
2023/12/13 05:57:20;;;;;;;3.47;2.33;;;;;;;7.50;100.00;98950.00;5006444;28;20218;-83
2023/12/13 05:59:47;;;;;;;3.27;2.30;;;;;;;7.48;100.00;98957.22;5002275;28;20207;-82
2023/12/13 06:02:13;;;;;;;2.67;2.30;;;;;;;7.51;100.00;98958.78;5005362;28;20222;-83
2023/12/13 06:04:41;;;;;;;2.00;1.60;;;;;;;7.53;100.00;98960.34;5006366;28;20666;-83
2023/12/13 06:07:09;;;;;;;2.73;1.90;;;;;;;7.57;100.00;98951.19;5008165;28;20237;-82
2023/12/13 06:09:35;;;;;;;2.30;2.00;;;;;;;7.57;100.00;98955.63;5002622;28;20706;-81
2023/12/13 06:12:03;;;;;;;5.80;2.43;;;;;;;7.56;100.00;98953.94;5005618;28;20207;-82
2023/12/13 06:14:29;;;;;;;2.33;2.07;;;;;;;7.54;100.00;98956.72;5004688;28;20210;-81
2023/12/13 06:16:56;;;;;;;2.27;1.93;;;;;;;7.54;100.00;98955.88;5001948;28;20232;-82
2023/12/13 06:19:24;;;;;;;4.10;2.17;;;;;;;7.55;100.00;98955.75;5001524;28;20570;-82
2023/12/13 06:21:51;;;;;;;5.77;3.03;;;;;;;7.58;100.00;98968.78;5005087;28;20203;-82
2023/12/13 06:24:19;;;;;;;4.30;3.40;;;;;;;7.60;100.00;98964.19;5009212;28;20199;-82
2023/12/13 06:26:45;;;;;;;3.27;2.67;;;;;;;7.58;100.00;98966.13;5005078;28;20239;-82
2023/12/13 06:29:12;;;;;;;3.43;2.87;;;;;;;7.58;100.00;98971.41;5008676;28;20199;-83
2023/12/13 06:31:38;;;;;;;3.40;2.83;;;;;;;7.58;100.00;98963.47;5004864;28;20270;-81
2023/12/13 06:34:05;;;;;;;3.97;3.30;;;;;;;7.57;100.00;98971.53;5005688;28;20207;-83
2023/12/13 06:36:31;;;;;;;3.90;3.03;;;;;;;7.56;100.00;98976.00;5004421;28;20222;-83
2023/12/13 06:38:58;;;;;;;4.40;3.10;;;;;;;7.56;100.00;98977.78;5004604;28;20215;-83
2023/12/13 06:41:25;;;;;;;4.63;3.50;;;;;;;7.59;100.00;98973.09;5006261;28;20203;-80
2023/12/13 06:43:52;;;;;;;6.10;3.90;;;;;;;7.60;100.00;98979.25;5008337;28;20215;-80
2023/12/13 06:46:18;;;;;;;5.73;3.73;;;;;;;7.63;100.00;98977.22;5005160;28;20228;-82
2023/12/13 06:48:46;;;;;;;4.80;3.73;;;;;;;7.65;100.00;98980.59;5003898;28;20617;-80
2023/12/13 06:51:12;;;;;;;4.33;3.43;;;;;;;7.68;100.00;98983.97;5008271;28;20211;-82
2023/12/13 06:53:39;;;;;;;6.83;4.67;;;;;;;7.65;100.00;98982.41;5003038;28;20704;-81
2023/12/13 06:56:06;;;;;;;7.77;4.00;;;;;;;7.68;100.00;98976.03;5001499;28;20660;-80
2023/12/13 06:58:35;;;;;;;7.13;5.00;;;;;;;7.68;100.00;98974.22;5008348;28;20787;-81
2023/12/13 07:01:02;;;;;;;6.30;4.73;;;;;;;7.65;100.00;98980.59;5008716;28;20206;-80
2023/12/13 07:03:28;;;;;;;6.40;4.90;;;;;;;7.66;100.00;98978.78;5003964;28;20207;-80
2023/12/13 07:05:55;;;;;;;9.13;7.40;;;;;;;7.67;100.00;98983.13;5013459;28;20226;-81
2023/12/13 07:08:21;;;;;;;6.00;4.63;;;;;;;7.66;100.00;98979.63;5009724;28;20410;-81
2023/12/13 07:10:48;;;;;;;4.80;4.03;;;;;;;7.68;100.00;98982.16;5005561;28;20283;-79
2023/12/13 07:13:15;;;;;;;4.80;3.70;;;;;;;7.69;100.00;98985.66;5002734;28;20603;-80
2023/12/13 07:15:42;;;;;;;6.40;4.80;;;;;;;7.67;100.00;98988.44;5007956;28;20200;-81
2023/12/13 07:18:09;;;;;;;6.90;5.17;;;;;;;7.66;100.00;98982.28;5009125;28;20226;-81
2023/12/13 07:20:35;;;;;;;7.83;5.40;;;;;;;7.66;100.00;98984.09;5011826;28;20217;-80
2023/12/13 07:23:02;;;;;;;7.10;5.33;;;;;;;7.64;100.00;98992.16;5007500;28;20260;-80
2023/12/13 07:25:29;;;;;;;7.20;4.93;;;;;;;7.65;100.00;98985.88;5005077;28;20329;-81
2023/12/13 07:27:55;;;;;;;8.43;5.67;;;;;;;7.65;100.00;98993.84;5001914;28;20226;-80
2023/12/13 07:30:23;;;;;;;7.67;5.43;;;;;;;7.64;100.00;98997.44;5008711;28;20207;-81
2023/12/13 07:32:53;;;;;;;6.80;4.93;;;;;;;7.64;100.00;98994.81;5007306;28;20211;-80
2023/12/13 07:35:19;;;;;;;5.77;5.17;;;;;;;7.64;100.00;98989.50;5007479;28;20290;-80
2023/12/13 07:37:46;;;;;;;6.77;4.80;;;;;;;7.63;100.00;98993.09;5011974;28;20594;-80
2023/12/13 07:40:13;;;;;;;9.43;5.97;;;;;;;7.69;100.00;98990.97;5016490;28;20210;-82
2023/12/13 07:42:41;;;;;;;11.63;7.07;;;;;;;7.67;100.00;98999.03;5014074;28;20210;-81
2023/12/13 07:45:10;;;;;;;12.93;7.93;;;;;;;7.68;100.00;99000.72;5009046;28;20215;-80
2023/12/13 07:47:36;;;;;;;16.40;7.73;;;;;;;7.68;100.00;98994.56;5008621;28;20316;-80
2023/12/13 07:50:05;;;;;;;9.47;6.67;;;;;;;7.68;100.00;98999.88;5008237;28;20210;-81
2023/12/13 07:52:32;;;;;;;12.33;6.90;;;;;;;7.66;100.00;98995.53;5008351;28;20207;-80
2023/12/13 07:54:59;;;;;;;12.43;7.60;;;;;;;7.69;100.00;99009.50;5010987;28;20832;-80
2023/12/13 07:57:25;;;;;;;13.27;8.33;;;;;;;7.71;100.00;98999.59;5011723;28;20235;-80
2023/12/13 07:59:51;;;;;;;16.87;7.80;;;;;;;7.69;100.00;98998.91;5012389;28;20576;-81
2023/12/13 08:02:20;;;;;;;8.97;5.60;;;;;;;7.68;100.00;98998.06;5010101;28;20371;-80
2023/12/13 08:04:46;;;;;;;7.10;4.70;;;;;;;7.68;100.00;99005.16;5008876;28;20654;-80
2023/12/13 08:07:14;;;;;;;8.17;4.97;;;;;;;7.70;100.00;98997.94;5011849;28;20231;-80
2023/12/13 08:09:41;;;;;;;6.83;5.50;;;;;;;7.70;100.00;99005.91;5010550;28;20207;-79
2023/12/13 08:12:08;;;;;;;8.43;5.77;;;;;;;7.71;100.00;99005.75;5005183;28;20222;-80
2023/12/13 08:14:34;;;;;;;6.07;4.23;;;;;;;7.73;100.00;99008.28;5010617;28;20575;-80
2023/12/13 08:17:02;;;;;;;6.70;5.03;;;;;;;7.74;100.00;99008.16;5009463;28;20231;-79
2023/12/13 08:19:29;;;;;;;5.77;4.43;;;;;;;7.77;100.00;99009.75;5009526;28;20211;-80
2023/12/13 08:21:55;;;;;;;6.63;3.70;;;;;;;7.80;100.00;99006.84;5008807;28;20242;-79
2023/12/13 08:24:23;;;;;;;6.07;4.03;;;;;;;7.79;100.00;99013.13;5009427;28;20207;-80
2023/12/13 08:26:49;;;;;;;5.70;3.57;;;;;;;7.81;100.00;99011.19;5009673;28;20235;-80
2023/12/13 08:29:16;;;;;;;5.07;4.10;;;;;;;7.81;100.00;99012.03;5022066;28;20206;-80
2023/12/13 08:31:42;;;;;;;4.83;3.87;;;;;;;7.84;100.00;99018.91;5013139;28;20219;-83
2023/12/13 08:34:09;;;;;;;7.07;3.93;;;;;;;7.87;100.00;99023.97;5011486;28;20227;-81
2023/12/13 08:36:35;;;;;;;5.67;3.13;;;;;;;7.88;100.00;99023.00;5012256;28;20223;-81
2023/12/13 08:39:02;;;;;;;4.67;3.20;;;;;;;7.89;100.00;99020.22;5013706;28;20222;-82
2023/12/13 08:41:30;;;;;;;5.93;4.33;;;;;;;7.92;100.00;99014.69;5013719;28;20217;-83
2023/12/13 08:43:57;;;;;;;7.47;4.80;;;;;;;7.93;100.00;99021.66;5014242;28;20203;-81
2023/12/13 08:46:23;;;;;;;6.33;4.60;;;;;;;7.95;100.00;99024.19;5010987;28;20232;-82
2023/12/13 08:48:50;;;;;;;6.87;5.03;;;;;;;7.97;100.00;99019.63;5008609;28;20214;-83
2023/12/13 08:51:16;;;;;;;6.57;4.97;;;;;;;7.98;100.00;99016.84;5022143;28;20249;-83
2023/12/13 08:53:43;;;;;;;6.37;4.63;;;;;;;8.00;100.00;99022.88;5018969;28;20199;-80
2023/12/13 08:56:10;;;;;;;7.10;4.60;;;;;;;8.03;100.00;99019.16;5010931;28;20221;-80
2023/12/13 08:58:38;;;;;;;7.67;4.90;;;;;;;8.04;100.00;99023.50;5016525;28;20265;-82
2023/12/13 09:01:04;;;;;;;7.33;5.20;;;;;;;8.06;100.00;99024.19;5006776;28;20210;-83
2023/12/13 09:03:31;;;;;;;6.93;4.70;;;;;;;8.09;100.00;99029.25;5010152;28;20218;-81
2023/12/13 09:05:58;;;;;;;6.23;5.20;;;;;;;8.10;100.00;99024.81;5011979;28;20231;-81
2023/12/13 09:08:25;;;;;;;5.13;4.50;;;;;;;8.11;100.00;99029.97;5013035;28;20233;-83
2023/12/13 09:10:51;;;;;;;5.33;4.27;;;;;;;8.13;100.00;99028.06;5011767;28;20221;-81
2023/12/13 09:13:17;;;;;;;7.57;3.97;;;;;;;8.16;100.00;99029.63;5015095;28;20202;-81
2023/12/13 09:15:45;;;;;;;5.17;3.37;;;;;;;8.19;100.00;99024.94;5013334;28;20215;-83
2023/12/13 09:18:12;;;;;;;6.90;3.07;;;;;;;8.27;100.00;99027.81;5011314;28;20234;-80
2023/12/13 09:20:40;;;;;;;4.83;2.80;;;;;;;8.25;100.00;99029.72;5013803;28;20203;-80
2023/12/13 09:23:06;;;;;;;3.40;2.90;;;;;;;8.23;100.00;99036.16;5011245;28;20619;-82
2023/12/13 09:25:33;;;;;;;4.77;3.30;;;;;;;8.21;100.00;99044.22;4999051;28;20219;-81
2023/12/13 09:28:01;;;;;;;5.20;3.27;;;;;;;8.21;100.00;99038.91;5003266;28;20235;-81
2023/12/13 09:30:27;;;;;;;4.20;2.77;;;;;;;8.25;100.00;99037.69;5006133;28;20198;-81
2023/12/13 09:32:55;;;;;;;5.50;3.20;;;;;;;8.27;100.00;99041.06;5003720;28;20218;-83
2023/12/13 09:35:22;;;;;;;6.73;3.40;;;;;;;8.27;100.00;99043.72;5006391;28;20238;-82
2023/12/13 09:37:48;;;;;;;6.47;3.97;;;;;;;8.28;100.00;99042.75;5003813;28;20226;-81
2023/12/13 09:40:18;;;;;;;4.90;2.93;;;;;;;8.28;100.00;99041.91;5005890;28;20203;-81
2023/12/13 09:42:46;;;;;;;5.93;2.83;;;;;;;8.28;100.00;99045.41;5007189;28;20576;-81
2023/12/13 09:45:19;;;;;;;5.77;3.10;;;;;;;8.29;100.00;99049.75;5007635;28;20208;-82
2023/12/13 09:47:46;;;;;;;4.70;2.27;;;;;;;8.30;100.00;99048.78;5006099;28;20254;-80
2023/12/13 09:50:15;;;;;;;3.73;2.07;;;;;;;8.30;100.00;99047.94;5006437;28;20206;-79
2023/12/13 09:52:43;;;;;;;2.83;2.10;;;;;;;8.32;100.00;99056.66;4999860;28;20204;-84
2023/12/13 09:55:10;;;;;;;4.93;2.00;;;;;;;8.32;100.00;99060.16;5010069;28;20684;-84
2023/12/13 09:57:36;;;;;;;3.17;1.90;;;;;;;8.36;100.00;99052.78;5004579;28;20313;-80
2023/12/13 10:00:03;;;;;;;2.33;1.43;;;;;;;8.36;100.00;99055.44;5011340;28;20211;-81
2023/12/13 10:02:30;;;;;;;3.47;1.80;;;;;;;8.36;100.00;99058.09;5007652;28;20730;-81
2023/12/13 10:04:59;;;;;;;3.10;2.23;;;;;;;8.35;100.00;99057.25;5011745;28;20663;-81
2023/12/13 10:07:28;;;;;;;7.07;3.07;;;;;;;8.36;100.00;99060.75;5006739;28;20227;-81
2023/12/13 10:09:55;;;;;;;4.87;3.30;;;;;;;8.35;100.00;99049.31;5006952;28;20202;-82
2023/12/13 10:12:22;;;;;;;7.17;4.03;;;;;;;8.36;100.00;99055.44;5010104;28;20202;-81
2023/12/13 10:14:49;;;;;;;8.33;4.23;;;;;;;8.35;100.00;99051.97;5010081;28;20293;-82
2023/12/13 10:17:20;;;;;;;6.03;3.30;;;;;;;8.36;100.00;99055.44;5002623;28;20223;-80
2023/12/13 10:19:47;;;;;;;9.40;3.63;;;;;;;8.35;100.00;99051.97;5002911;28;20211;-81
2023/12/13 10:22:13;;;;;;;2.93;1.80;;;;;;;8.37;100.00;99056.28;5002529;28;20238;-80
2023/12/13 10:24:42;;;;;;;3.07;2.17;;;;;;;8.38;100.00;99053.53;5001466;28;20203;-80
2023/12/13 10:27:08;;;;;;;3.33;1.70;;;;;;;8.39;100.00;99044.59;5004458;28;20254;-80
2023/12/13 10:29:35;;;;;;;2.40;1.60;;;;;;;8.39;100.00;99052.56;4999426;28;20214;-82
2023/12/13 10:32:02;;;;;;;4.10;1.70;;;;;;;8.40;100.00;99058.72;5003520;28;20735;-80
2023/12/13 10:34:29;;;;;;;1.73;1.60;;;;;;;8.41;100.00;99049.78;4999575;28;20207;-81
2023/12/13 10:36:56;;;;;;;2.60;1.70;;;;;;;8.41;100.00;99055.94;5000991;28;20220;-81
2023/12/13 10:39:24;;;;;;;4.30;2.00;;;;;;;8.42;100.00;99059.44;5002416;28;20204;-80
2023/12/13 10:41:56;;;;;;;2.53;1.30;;;;;;;8.42;100.00;99056.78;5006579;28;20207;-81
2023/12/13 10:44:23;;;;;;;4.33;1.93;;;;;;;8.42;100.00;99056.78;5003678;28;20203;-81
2023/12/13 10:46:56;;;;;;;3.60;1.73;;;;;;;8.42;100.00;99054.13;5001775;28;20238;-81
2023/12/13 10:49:23;;;;;;;4.33;2.63;;;;;;;8.45;100.00;99059.16;5004532;28;20664;-82
2023/12/13 10:51:50;;;;;;;2.90;1.97;;;;;;;8.46;100.00;99056.38;5005678;28;20213;-82
2023/12/13 10:54:18;;;;;;;3.47;1.80;;;;;;;8.49;100.00;99057.97;5001708;28;20211;-79
2023/12/13 10:56:45;;;;;;;4.27;1.80;;;;;;;8.48;100.00;99056.28;5005142;28;20759;-80
2023/12/13 10:59:14;;;;;;;3.70;1.70;;;;;;;8.50;100.00;99057.00;5003018;28;20565;-80
2023/12/13 11:01:42;;;;;;;2.73;1.97;;;;;;;8.49;100.00;99055.31;5006437;28;20199;-80
2023/12/13 11:04:12;;;;;;;3.60;2.00;;;;;;;8.48;100.00;99054.47;5003335;28;20210;-81
2023/12/13 11:06:39;;;;;;;2.80;2.20;;;;;;;8.50;100.00;99057.00;5007828;28;20263;-79
2023/12/13 11:09:13;;;;;;;4.00;2.13;;;;;;;8.51;100.00;99064.84;5010276;28;20448;-82
2023/12/13 11:11:40;;;;;;;4.70;2.30;;;;;;;8.51;100.00;99058.69;5008262;28;20203;-81
2023/12/13 11:14:07;;;;;;;4.17;2.17;;;;;;;8.51;100.00;99064.00;5010731;28;20206;-81
2023/12/13 11:16:40;;;;;;;5.07;2.27;;;;;;;8.52;100.00;99060.38;5010959;28;20231;-80
2023/12/13 11:19:11;;;;;;;4.57;2.90;;;;;;;8.50;100.00;99064.97;5011101;28;20221;-81
2023/12/13 11:21:39;;;;;;;3.93;2.47;;;;;;;8.50;100.00;99067.59;5010134;28;20693;-79
2023/12/13 11:24:12;;;;;;;6.40;3.10;;;;;;;8.49;100.00;99066.75;5010055;28;20654;-80
2023/12/13 11:26:40;;;;;;;9.37;3.53;;;;;;;8.50;100.00;99064.97;5009977;28;20227;-81
2023/12/13 11:29:13;;;;;;;5.43;3.80;;;;;;;8.51;100.00;99072.78;5008798;28;20230;-81
2023/12/13 11:31:51;;;;;;;4.37;3.10;;;;;;;8.52;100.00;99073.63;5004937;28;20208;-82
2023/12/13 11:34:18;;;;;;;5.27;3.43;;;;;;;8.52;100.00;99068.34;5008289;28;20211;-81